sensor_id;sensor_type;location;lat;lon;timestamp;P1;durP1;ratioP1;P2;durP2;ratioP2
5117;SDS011;2578;51.622;7.046;2023-12-04T00:00:37;38.10;;;14.63;;
5117;SDS011;2578;51.622;7.046;2023-12-04T00:03:03;39.53;;;15.43;;
5117;SDS011;2578;51.622;7.046;2023-12-04T00:05:28;32.80;;;15.73;;
5117;SDS011;2578;51.622;7.046;2023-12-04T00:07:54;31.87;;;14.63;;
5117;SDS011;2578;51.622;7.046;2023-12-04T00:10:20;32.77;;;15.03;;
5117;SDS011;2578;51.622;7.046;2023-12-04T00:12:46;33.70;;;15.73;;
5117;SDS011;2578;51.622;7.046;2023-12-04T00:15:11;39.73;;;16.97;;
5117;SDS011;2578;51.622;7.046;2023-12-04T00:17:37;37.60;;;18.43;;
5117;SDS011;2578;51.622;7.046;2023-12-04T00:20:08;37.33;;;17.63;;
5117;SDS011;2578;51.622;7.046;2023-12-04T00:22:34;34.73;;;17.40;;
5117;SDS011;2578;51.622;7.046;2023-12-04T00:25:01;52.50;;;18.47;;
5117;SDS011;2578;51.622;7.046;2023-12-04T00:27:28;32.87;;;15.80;;
5117;SDS011;2578;51.622;7.046;2023-12-04T00:29:54;33.83;;;16.30;;
5117;SDS011;2578;51.622;7.046;2023-12-04T00:32:20;35.93;;;17.10;;
5117;SDS011;2578;51.622;7.046;2023-12-04T00:34:45;40.17;;;16.53;;
5117;SDS011;2578;51.622;7.046;2023-12-04T00:37:11;37.57;;;17.47;;
5117;SDS011;2578;51.622;7.046;2023-12-04T00:39:36;32.40;;;15.87;;
5117;SDS011;2578;51.622;7.046;2023-12-04T00:42:02;37.70;;;17.57;;
5117;SDS011;2578;51.622;7.046;2023-12-04T00:44:28;38.07;;;17.47;;
5117;SDS011;2578;51.622;7.046;2023-12-04T00:46:53;40.00;;;17.40;;
5117;SDS011;2578;51.622;7.046;2023-12-04T00:49:19;32.23;;;14.67;;
5117;SDS011;2578;51.622;7.046;2023-12-04T00:51:45;63.27;;;18.00;;
5117;SDS011;2578;51.622;7.046;2023-12-04T00:54:10;38.33;;;18.67;;
5117;SDS011;2578;51.622;7.046;2023-12-04T00:56:39;36.30;;;16.90;;
5117;SDS011;2578;51.622;7.046;2023-12-04T00:59:06;37.83;;;17.10;;
5117;SDS011;2578;51.622;7.046;2023-12-04T01:01:37;33.30;;;16.50;;
5117;SDS011;2578;51.622;7.046;2023-12-04T01:04:03;38.93;;;17.20;;
5117;SDS011;2578;51.622;7.046;2023-12-04T01:06:29;32.73;;;17.00;;
5117;SDS011;2578;51.622;7.046;2023-12-04T01:08:55;36.63;;;16.53;;
5117;SDS011;2578;51.622;7.046;2023-12-04T01:11:21;32.73;;;15.50;;
5117;SDS011;2578;51.622;7.046;2023-12-04T01:13:47;38.83;;;17.90;;
5117;SDS011;2578;51.622;7.046;2023-12-04T01:16:14;33.20;;;17.40;;
5117;SDS011;2578;51.622;7.046;2023-12-04T01:18:40;35.80;;;18.27;;
5117;SDS011;2578;51.622;7.046;2023-12-04T01:21:06;36.53;;;17.17;;
5117;SDS011;2578;51.622;7.046;2023-12-04T01:23:33;38.37;;;17.80;;
5117;SDS011;2578;51.622;7.046;2023-12-04T01:25:59;36.17;;;20.23;;
5117;SDS011;2578;51.622;7.046;2023-12-04T01:28:25;34.30;;;17.93;;
5117;SDS011;2578;51.622;7.046;2023-12-04T01:30:51;33.30;;;17.30;;
5117;SDS011;2578;51.622;7.046;2023-12-04T01:33:17;39.83;;;19.03;;
5117;SDS011;2578;51.622;7.046;2023-12-04T01:35:42;36.10;;;18.83;;
5117;SDS011;2578;51.622;7.046;2023-12-04T01:38:08;32.10;;;16.43;;
5117;SDS011;2578;51.622;7.046;2023-12-04T01:40:33;31.10;;;15.80;;
5117;SDS011;2578;51.622;7.046;2023-12-04T01:42:59;35.60;;;18.53;;
5117;SDS011;2578;51.622;7.046;2023-12-04T01:45:25;34.27;;;18.23;;
5117;SDS011;2578;51.622;7.046;2023-12-04T01:47:50;33.57;;;17.33;;
5117;SDS011;2578;51.622;7.046;2023-12-04T01:50:16;42.17;;;19.30;;
5117;SDS011;2578;51.622;7.046;2023-12-04T01:52:42;33.60;;;17.47;;
5117;SDS011;2578;51.622;7.046;2023-12-04T01:55:08;34.80;;;17.17;;
5117;SDS011;2578;51.622;7.046;2023-12-04T01:57:35;32.70;;;17.53;;
5117;SDS011;2578;51.622;7.046;2023-12-04T02:00:01;34.87;;;18.93;;
5117;SDS011;2578;51.622;7.046;2023-12-04T02:02:27;33.57;;;19.33;;
5117;SDS011;2578;51.622;7.046;2023-12-04T02:04:54;32.07;;;17.63;;
5117;SDS011;2578;51.622;7.046;2023-12-04T02:07:21;31.30;;;16.53;;
5117;SDS011;2578;51.622;7.046;2023-12-04T02:09:47;37.07;;;18.83;;
5117;SDS011;2578;51.622;7.046;2023-12-04T02:12:13;32.27;;;17.27;;
5117;SDS011;2578;51.622;7.046;2023-12-04T02:14:38;32.50;;;17.20;;
5117;SDS011;2578;51.622;7.046;2023-12-04T02:17:05;33.00;;;17.53;;
5117;SDS011;2578;51.622;7.046;2023-12-04T02:19:32;32.00;;;17.17;;
5117;SDS011;2578;51.622;7.046;2023-12-04T02:21:58;34.13;;;19.37;;
5117;SDS011;2578;51.622;7.046;2023-12-04T02:24:23;33.73;;;18.60;;
5117;SDS011;2578;51.622;7.046;2023-12-04T02:26:55;30.47;;;16.03;;
5117;SDS011;2578;51.622;7.046;2023-12-04T02:29:45;33.87;;;19.87;;
5117;SDS011;2578;51.622;7.046;2023-12-04T02:32:16;32.80;;;18.10;;
5117;SDS011;2578;51.622;7.046;2023-12-04T02:34:43;37.50;;;20.23;;
5117;SDS011;2578;51.622;7.046;2023-12-04T02:37:11;36.10;;;18.20;;
5117;SDS011;2578;51.622;7.046;2023-12-04T02:39:37;33.13;;;17.63;;
5117;SDS011;2578;51.622;7.046;2023-12-04T02:42:03;30.87;;;16.30;;
5117;SDS011;2578;51.622;7.046;2023-12-04T02:44:29;31.47;;;17.43;;
5117;SDS011;2578;51.622;7.046;2023-12-04T02:46:54;34.10;;;19.13;;
5117;SDS011;2578;51.622;7.046;2023-12-04T02:49:20;34.00;;;19.57;;
5117;SDS011;2578;51.622;7.046;2023-12-04T02:51:46;34.70;;;19.47;;
5117;SDS011;2578;51.622;7.046;2023-12-04T02:54:12;34.63;;;18.33;;
5117;SDS011;2578;51.622;7.046;2023-12-04T02:56:37;33.83;;;17.50;;
5117;SDS011;2578;51.622;7.046;2023-12-04T02:59:03;38.37;;;19.27;;
5117;SDS011;2578;51.622;7.046;2023-12-04T03:01:28;37.13;;;17.10;;
5117;SDS011;2578;51.622;7.046;2023-12-04T03:03:54;42.30;;;18.00;;
5117;SDS011;2578;51.622;7.046;2023-12-04T03:06:19;36.50;;;18.00;;
5117;SDS011;2578;51.622;7.046;2023-12-04T03:08:45;31.40;;;16.77;;
5117;SDS011;2578;51.622;7.046;2023-12-04T03:11:11;41.43;;;17.80;;
5117;SDS011;2578;51.622;7.046;2023-12-04T03:13:36;33.07;;;16.80;;
5117;SDS011;2578;51.622;7.046;2023-12-04T03:16:02;35.27;;;18.20;;
5117;SDS011;2578;51.622;7.046;2023-12-04T03:18:27;35.90;;;17.53;;
5117;SDS011;2578;51.622;7.046;2023-12-04T03:20:53;33.50;;;17.03;;
5117;SDS011;2578;51.622;7.046;2023-12-04T03:23:19;32.30;;;17.57;;
5117;SDS011;2578;51.622;7.046;2023-12-04T03:25:45;32.47;;;17.70;;
5117;SDS011;2578;51.622;7.046;2023-12-04T03:28:10;31.57;;;17.40;;
5117;SDS011;2578;51.622;7.046;2023-12-04T03:30:38;33.63;;;19.07;;
5117;SDS011;2578;51.622;7.046;2023-12-04T03:33:03;32.77;;;17.90;;
5117;SDS011;2578;51.622;7.046;2023-12-04T03:35:29;33.93;;;18.43;;
5117;SDS011;2578;51.622;7.046;2023-12-04T03:37:54;38.00;;;18.20;;
5117;SDS011;2578;51.622;7.046;2023-12-04T03:40:20;35.03;;;18.47;;
5117;SDS011;2578;51.622;7.046;2023-12-04T03:42:46;33.97;;;18.23;;
5117;SDS011;2578;51.622;7.046;2023-12-04T03:45:11;33.20;;;17.67;;
5117;SDS011;2578;51.622;7.046;2023-12-04T03:47:37;32.60;;;17.60;;
5117;SDS011;2578;51.622;7.046;2023-12-04T03:50:02;30.23;;;16.50;;
5117;SDS011;2578;51.622;7.046;2023-12-04T03:52:29;32.70;;;18.87;;
5117;SDS011;2578;51.622;7.046;2023-12-04T03:54:54;30.60;;;17.00;;
5117;SDS011;2578;51.622;7.046;2023-12-04T03:57:20;31.27;;;18.17;;
5117;SDS011;2578;51.622;7.046;2023-12-04T03:59:45;32.90;;;18.53;;
5117;SDS011;2578;51.622;7.046;2023-12-04T04:02:11;38.20;;;19.70;;
5117;SDS011;2578;51.622;7.046;2023-12-04T04:04:37;30.80;;;18.07;;
5117;SDS011;2578;51.622;7.046;2023-12-04T04:07:02;32.37;;;18.80;;
5117;SDS011;2578;51.622;7.046;2023-12-04T04:09:28;32.63;;;18.40;;
5117;SDS011;2578;51.622;7.046;2023-12-04T04:11:53;36.93;;;17.90;;
5117;SDS011;2578;51.622;7.046;2023-12-04T04:14:19;33.13;;;18.30;;
5117;SDS011;2578;51.622;7.046;2023-12-04T04:16:44;31.27;;;17.60;;
5117;SDS011;2578;51.622;7.046;2023-12-04T04:19:10;34.50;;;17.97;;
5117;SDS011;2578;51.622;7.046;2023-12-04T04:21:39;33.03;;;19.67;;
5117;SDS011;2578;51.622;7.046;2023-12-04T04:24:05;31.70;;;18.67;;
5117;SDS011;2578;51.622;7.046;2023-12-04T04:26:31;33.30;;;19.23;;
5117;SDS011;2578;51.622;7.046;2023-12-04T04:28:57;32.70;;;19.00;;
5117;SDS011;2578;51.622;7.046;2023-12-04T04:31:23;36.30;;;19.93;;
5117;SDS011;2578;51.622;7.046;2023-12-04T04:33:49;34.63;;;20.60;;
5117;SDS011;2578;51.622;7.046;2023-12-04T04:36:15;39.83;;;22.80;;
5117;SDS011;2578;51.622;7.046;2023-12-04T04:38:40;34.83;;;20.10;;
5117;SDS011;2578;51.622;7.046;2023-12-04T04:41:06;33.20;;;19.80;;
5117;SDS011;2578;51.622;7.046;2023-12-04T04:43:32;33.23;;;20.10;;
5117;SDS011;2578;51.622;7.046;2023-12-04T04:45:57;33.27;;;19.90;;
5117;SDS011;2578;51.622;7.046;2023-12-04T04:48:23;38.13;;;21.17;;
5117;SDS011;2578;51.622;7.046;2023-12-04T04:50:49;38.37;;;21.27;;
5117;SDS011;2578;51.622;7.046;2023-12-04T04:53:14;34.10;;;20.33;;
5117;SDS011;2578;51.622;7.046;2023-12-04T04:55:40;33.93;;;20.73;;
5117;SDS011;2578;51.622;7.046;2023-12-04T04:58:06;34.87;;;21.50;;
5117;SDS011;2578;51.622;7.046;2023-12-04T05:00:31;38.37;;;21.37;;
5117;SDS011;2578;51.622;7.046;2023-12-04T05:02:57;35.13;;;21.53;;
5117;SDS011;2578;51.622;7.046;2023-12-04T05:05:22;35.17;;;21.43;;
5117;SDS011;2578;51.622;7.046;2023-12-04T05:07:48;34.93;;;20.73;;
5117;SDS011;2578;51.622;7.046;2023-12-04T05:10:14;34.83;;;21.40;;
5117;SDS011;2578;51.622;7.046;2023-12-04T05:12:39;33.07;;;20.03;;
5117;SDS011;2578;51.622;7.046;2023-12-04T05:15:05;33.20;;;20.57;;
5117;SDS011;2578;51.622;7.046;2023-12-04T05:17:31;34.33;;;21.23;;
5117;SDS011;2578;51.622;7.046;2023-12-04T05:19:57;36.03;;;21.10;;
5117;SDS011;2578;51.622;7.046;2023-12-04T05:22:22;35.40;;;21.43;;
5117;SDS011;2578;51.622;7.046;2023-12-04T05:24:48;34.93;;;22.30;;
5117;SDS011;2578;51.622;7.046;2023-12-04T05:27:13;33.40;;;21.10;;
5117;SDS011;2578;51.622;7.046;2023-12-04T05:29:39;34.33;;;20.70;;
5117;SDS011;2578;51.622;7.046;2023-12-04T05:32:05;34.93;;;21.70;;
5117;SDS011;2578;51.622;7.046;2023-12-04T05:34:31;36.20;;;22.63;;
5117;SDS011;2578;51.622;7.046;2023-12-04T05:36:56;35.70;;;22.07;;
5117;SDS011;2578;51.622;7.046;2023-12-04T05:39:22;34.60;;;20.97;;
5117;SDS011;2578;51.622;7.046;2023-12-04T05:41:47;35.70;;;20.13;;
5117;SDS011;2578;51.622;7.046;2023-12-04T05:44:13;36.60;;;21.87;;
5117;SDS011;2578;51.622;7.046;2023-12-04T05:46:38;36.20;;;21.40;;
5117;SDS011;2578;51.622;7.046;2023-12-04T05:49:04;35.10;;;20.57;;
5117;SDS011;2578;51.622;7.046;2023-12-04T05:51:30;35.53;;;19.90;;
5117;SDS011;2578;51.622;7.046;2023-12-04T05:53:55;35.80;;;21.10;;
5117;SDS011;2578;51.622;7.046;2023-12-04T05:56:21;36.57;;;22.07;;
5117;SDS011;2578;51.622;7.046;2023-12-04T05:58:46;38.30;;;23.60;;
5117;SDS011;2578;51.622;7.046;2023-12-04T06:01:12;35.57;;;21.93;;
5117;SDS011;2578;51.622;7.046;2023-12-04T06:03:40;35.87;;;21.77;;
5117;SDS011;2578;51.622;7.046;2023-12-04T06:06:05;37.00;;;22.83;;
5117;SDS011;2578;51.622;7.046;2023-12-04T06:08:31;52.93;;;24.63;;
5117;SDS011;2578;51.622;7.046;2023-12-04T06:10:57;37.03;;;21.53;;
5117;SDS011;2578;51.622;7.046;2023-12-04T06:13:23;33.27;;;20.47;;
5117;SDS011;2578;51.622;7.046;2023-12-04T06:15:48;34.27;;;21.03;;
5117;SDS011;2578;51.622;7.046;2023-12-04T06:18:14;34.80;;;21.43;;
5117;SDS011;2578;51.622;7.046;2023-12-04T06:20:40;34.83;;;20.70;;
5117;SDS011;2578;51.622;7.046;2023-12-04T06:23:05;34.57;;;20.60;;
5117;SDS011;2578;51.622;7.046;2023-12-04T06:25:31;37.27;;;21.40;;
5117;SDS011;2578;51.622;7.046;2023-12-04T06:27:57;32.50;;;19.40;;
5117;SDS011;2578;51.622;7.046;2023-12-04T06:30:23;40.40;;;21.80;;
5117;SDS011;2578;51.622;7.046;2023-12-04T06:32:49;35.17;;;20.73;;
5117;SDS011;2578;51.622;7.046;2023-12-04T06:35:15;36.27;;;21.90;;
5117;SDS011;2578;51.622;7.046;2023-12-04T06:37:41;36.20;;;20.60;;
5117;SDS011;2578;51.622;7.046;2023-12-04T06:40:08;35.73;;;21.87;;
5117;SDS011;2578;51.622;7.046;2023-12-04T06:42:36;34.40;;;20.77;;
5117;SDS011;2578;51.622;7.046;2023-12-04T06:45:02;35.23;;;20.93;;
5117;SDS011;2578;51.622;7.046;2023-12-04T06:47:28;34.70;;;20.70;;
5117;SDS011;2578;51.622;7.046;2023-12-04T06:49:56;34.30;;;20.50;;
5117;SDS011;2578;51.622;7.046;2023-12-04T06:52:22;35.43;;;21.40;;
5117;SDS011;2578;51.622;7.046;2023-12-04T06:54:47;33.93;;;21.00;;
5117;SDS011;2578;51.622;7.046;2023-12-04T06:57:14;35.47;;;20.77;;
5117;SDS011;2578;51.622;7.046;2023-12-04T06:59:41;40.50;;;21.90;;
5117;SDS011;2578;51.622;7.046;2023-12-04T07:02:07;37.10;;;21.27;;
5117;SDS011;2578;51.622;7.046;2023-12-04T07:04:33;38.10;;;21.20;;
5117;SDS011;2578;51.622;7.046;2023-12-04T07:06:59;34.97;;;21.00;;
5117;SDS011;2578;51.622;7.046;2023-12-04T07:09:30;34.87;;;20.93;;
5117;SDS011;2578;51.622;7.046;2023-12-04T07:12:01;36.60;;;21.10;;
5117;SDS011;2578;51.622;7.046;2023-12-04T07:14:27;36.10;;;20.60;;
5117;SDS011;2578;51.622;7.046;2023-12-04T07:16:53;40.50;;;21.60;;
5117;SDS011;2578;51.622;7.046;2023-12-04T07:19:19;37.30;;;21.70;;
5117;SDS011;2578;51.622;7.046;2023-12-04T07:21:45;35.17;;;20.20;;
5117;SDS011;2578;51.622;7.046;2023-12-04T07:24:10;36.37;;;20.03;;
5117;SDS011;2578;51.622;7.046;2023-12-04T07:26:36;38.50;;;21.57;;
5117;SDS011;2578;51.622;7.046;2023-12-04T07:29:02;35.30;;;20.50;;
5117;SDS011;2578;51.622;7.046;2023-12-04T07:31:28;36.53;;;20.83;;
5117;SDS011;2578;51.622;7.046;2023-12-04T07:33:54;38.37;;;20.63;;
5117;SDS011;2578;51.622;7.046;2023-12-04T07:36:20;36.00;;;20.60;;
5117;SDS011;2578;51.622;7.046;2023-12-04T07:38:45;38.43;;;22.03;;
5117;SDS011;2578;51.622;7.046;2023-12-04T07:41:11;33.57;;;19.70;;
5117;SDS011;2578;51.622;7.046;2023-12-04T07:43:36;34.87;;;20.60;;
5117;SDS011;2578;51.622;7.046;2023-12-04T07:46:02;36.13;;;22.03;;
5117;SDS011;2578;51.622;7.046;2023-12-04T07:48:28;42.33;;;21.73;;
5117;SDS011;2578;51.622;7.046;2023-12-04T07:50:55;34.20;;;20.30;;
5117;SDS011;2578;51.622;7.046;2023-12-04T07:53:20;39.70;;;20.87;;
5117;SDS011;2578;51.622;7.046;2023-12-04T07:55:47;37.50;;;20.27;;
5117;SDS011;2578;51.622;7.046;2023-12-04T07:58:14;34.00;;;19.83;;
5117;SDS011;2578;51.622;7.046;2023-12-04T08:00:40;33.33;;;19.50;;
5117;SDS011;2578;51.622;7.046;2023-12-04T08:03:06;36.73;;;20.90;;
5117;SDS011;2578;51.622;7.046;2023-12-04T08:05:32;34.87;;;19.63;;
5117;SDS011;2578;51.622;7.046;2023-12-04T08:07:58;38.23;;;20.90;;
5117;SDS011;2578;51.622;7.046;2023-12-04T08:10:24;36.90;;;22.00;;
5117;SDS011;2578;51.622;7.046;2023-12-04T08:12:49;35.33;;;21.40;;
5117;SDS011;2578;51.622;7.046;2023-12-04T08:15:15;33.40;;;20.00;;
5117;SDS011;2578;51.622;7.046;2023-12-04T08:17:40;34.90;;;19.80;;
5117;SDS011;2578;51.622;7.046;2023-12-04T08:20:06;36.23;;;20.63;;
5117;SDS011;2578;51.622;7.046;2023-12-04T08:22:32;38.10;;;20.47;;
5117;SDS011;2578;51.622;7.046;2023-12-04T08:24:58;34.00;;;20.03;;
5117;SDS011;2578;51.622;7.046;2023-12-04T08:27:24;38.13;;;22.13;;
5117;SDS011;2578;51.622;7.046;2023-12-04T08:29:50;34.13;;;20.70;;
5117;SDS011;2578;51.622;7.046;2023-12-04T08:32:15;37.17;;;21.60;;
5117;SDS011;2578;51.622;7.046;2023-12-04T08:34:41;34.90;;;21.40;;
5117;SDS011;2578;51.622;7.046;2023-12-04T08:37:07;34.03;;;20.20;;
5117;SDS011;2578;51.622;7.046;2023-12-04T08:39:33;35.30;;;20.77;;
5117;SDS011;2578;51.622;7.046;2023-12-04T08:41:58;36.50;;;20.37;;
5117;SDS011;2578;51.622;7.046;2023-12-04T08:44:24;34.83;;;21.40;;
5117;SDS011;2578;51.622;7.046;2023-12-04T08:46:49;34.30;;;20.50;;
5117;SDS011;2578;51.622;7.046;2023-12-04T08:49:15;32.83;;;19.50;;
5117;SDS011;2578;51.622;7.046;2023-12-04T08:51:41;33.87;;;20.97;;
5117;SDS011;2578;51.622;7.046;2023-12-04T08:54:06;36.37;;;22.67;;
5117;SDS011;2578;51.622;7.046;2023-12-04T08:56:32;33.50;;;20.47;;
5117;SDS011;2578;51.622;7.046;2023-12-04T08:58:58;35.90;;;21.73;;
5117;SDS011;2578;51.622;7.046;2023-12-04T09:01:23;33.00;;;19.60;;
5117;SDS011;2578;51.622;7.046;2023-12-04T09:03:51;37.30;;;22.43;;
5117;SDS011;2578;51.622;7.046;2023-12-04T09:06:17;36.63;;;22.00;;
5117;SDS011;2578;51.622;7.046;2023-12-04T09:08:43;39.57;;;27.67;;
5117;SDS011;2578;51.622;7.046;2023-12-04T09:11:08;44.20;;;23.67;;
5117;SDS011;2578;51.622;7.046;2023-12-04T09:13:34;34.57;;;21.50;;
5117;SDS011;2578;51.622;7.046;2023-12-04T09:16:00;42.57;;;21.47;;
5117;SDS011;2578;51.622;7.046;2023-12-04T09:18:25;34.83;;;21.30;;
5117;SDS011;2578;51.622;7.046;2023-12-04T09:20:51;35.30;;;21.63;;
5117;SDS011;2578;51.622;7.046;2023-12-04T09:23:17;35.50;;;21.40;;
5117;SDS011;2578;51.622;7.046;2023-12-04T09:25:42;36.40;;;21.07;;
5117;SDS011;2578;51.622;7.046;2023-12-04T09:28:08;33.80;;;21.07;;
5117;SDS011;2578;51.622;7.046;2023-12-04T09:30:34;35.40;;;22.47;;
5117;SDS011;2578;51.622;7.046;2023-12-04T09:33:01;36.40;;;22.33;;
5117;SDS011;2578;51.622;7.046;2023-12-04T09:35:26;36.10;;;22.83;;
5117;SDS011;2578;51.622;7.046;2023-12-04T09:37:52;38.00;;;23.23;;
5117;SDS011;2578;51.622;7.046;2023-12-04T09:40:19;36.57;;;21.80;;
5117;SDS011;2578;51.622;7.046;2023-12-04T09:42:44;37.17;;;22.73;;
5117;SDS011;2578;51.622;7.046;2023-12-04T09:45:11;37.00;;;21.50;;
5117;SDS011;2578;51.622;7.046;2023-12-04T09:47:38;51.57;;;23.87;;
5117;SDS011;2578;51.622;7.046;2023-12-04T09:50:03;38.13;;;21.77;;
5117;SDS011;2578;51.622;7.046;2023-12-04T09:52:30;37.13;;;22.20;;
5117;SDS011;2578;51.622;7.046;2023-12-04T09:54:59;36.57;;;20.97;;
5117;SDS011;2578;51.622;7.046;2023-12-04T09:57:24;33.83;;;19.93;;
5117;SDS011;2578;51.622;7.046;2023-12-04T09:59:51;34.03;;;20.97;;
5117;SDS011;2578;51.622;7.046;2023-12-04T10:02:18;36.07;;;22.23;;
5117;SDS011;2578;51.622;7.046;2023-12-04T10:04:44;50.73;;;23.30;;
5117;SDS011;2578;51.622;7.046;2023-12-04T10:07:11;37.10;;;21.03;;
5117;SDS011;2578;51.622;7.046;2023-12-04T10:09:36;35.00;;;20.40;;
5117;SDS011;2578;51.622;7.046;2023-12-04T10:12:02;38.37;;;21.83;;
5117;SDS011;2578;51.622;7.046;2023-12-04T10:14:28;39.20;;;22.27;;
5117;SDS011;2578;51.622;7.046;2023-12-04T10:16:53;36.70;;;22.93;;
5117;SDS011;2578;51.622;7.046;2023-12-04T10:19:20;37.40;;;22.60;;
5117;SDS011;2578;51.622;7.046;2023-12-04T10:21:54;43.10;;;27.73;;
5117;SDS011;2578;51.622;7.046;2023-12-04T10:26:56;37.43;;;23.03;;
5117;SDS011;2578;51.622;7.046;2023-12-04T10:29:22;37.00;;;22.57;;
5117;SDS011;2578;51.622;7.046;2023-12-04T10:31:49;37.17;;;23.10;;
5117;SDS011;2578;51.622;7.046;2023-12-04T10:34:17;36.60;;;22.90;;
5117;SDS011;2578;51.622;7.046;2023-12-04T10:36:44;35.33;;;22.03;;
5117;SDS011;2578;51.622;7.046;2023-12-04T10:39:11;42.33;;;26.10;;
5117;SDS011;2578;51.622;7.046;2023-12-04T10:41:38;40.53;;;24.17;;
5117;SDS011;2578;51.622;7.046;2023-12-04T10:44:04;38.27;;;24.53;;
5117;SDS011;2578;51.622;7.046;2023-12-04T10:46:29;38.50;;;25.23;;
5117;SDS011;2578;51.622;7.046;2023-12-04T10:48:56;38.40;;;23.33;;
5117;SDS011;2578;51.622;7.046;2023-12-04T10:51:23;38.30;;;23.07;;
5117;SDS011;2578;51.622;7.046;2023-12-04T10:53:49;37.63;;;22.53;;
5117;SDS011;2578;51.622;7.046;2023-12-04T10:56:19;39.10;;;23.30;;
5117;SDS011;2578;51.622;7.046;2023-12-04T10:58:52;36.63;;;21.40;;
5117;SDS011;2578;51.622;7.046;2023-12-04T11:01:19;39.30;;;23.33;;
5117;SDS011;2578;51.622;7.046;2023-12-04T11:03:48;41.40;;;22.33;;
5117;SDS011;2578;51.622;7.046;2023-12-04T11:06:19;39.27;;;24.50;;
5117;SDS011;2578;51.622;7.046;2023-12-04T11:08:47;39.47;;;24.63;;
5117;SDS011;2578;51.622;7.046;2023-12-04T11:11:26;37.07;;;23.47;;
5117;SDS011;2578;51.622;7.046;2023-12-04T11:13:58;37.77;;;23.93;;
5117;SDS011;2578;51.622;7.046;2023-12-04T11:19:20;39.00;;;24.23;;
5117;SDS011;2578;51.622;7.046;2023-12-04T11:21:54;40.37;;;23.70;;
5117;SDS011;2578;51.622;7.046;2023-12-04T11:24:25;39.40;;;23.43;;
5117;SDS011;2578;51.622;7.046;2023-12-04T11:26:50;37.67;;;22.80;;
5117;SDS011;2578;51.622;7.046;2023-12-04T11:29:17;36.47;;;22.57;;
5117;SDS011;2578;51.622;7.046;2023-12-04T11:31:44;39.97;;;23.70;;
5117;SDS011;2578;51.622;7.046;2023-12-04T11:34:11;36.13;;;22.20;;
5117;SDS011;2578;51.622;7.046;2023-12-04T11:36:37;35.00;;;21.87;;
5117;SDS011;2578;51.622;7.046;2023-12-04T11:39:05;35.53;;;21.37;;
5117;SDS011;2578;51.622;7.046;2023-12-04T11:41:35;35.33;;;21.80;;
5117;SDS011;2578;51.622;7.046;2023-12-04T11:44:01;37.53;;;22.40;;
5117;SDS011;2578;51.622;7.046;2023-12-04T11:46:27;37.10;;;22.70;;
5117;SDS011;2578;51.622;7.046;2023-12-04T11:52:14;35.67;;;22.03;;
5117;SDS011;2578;51.622;7.046;2023-12-04T11:54:56;39.23;;;23.10;;
5117;SDS011;2578;51.622;7.046;2023-12-04T11:57:35;35.47;;;21.33;;
5117;SDS011;2578;51.622;7.046;2023-12-04T12:00:22;36.03;;;20.70;;
5117;SDS011;2578;51.622;7.046;2023-12-04T12:05:22;45.30;;;21.80;;
5117;SDS011;2578;51.622;7.046;2023-12-04T12:07:48;36.53;;;21.37;;
5117;SDS011;2578;51.622;7.046;2023-12-04T12:10:18;34.97;;;20.50;;
5117;SDS011;2578;51.622;7.046;2023-12-04T12:12:44;35.27;;;20.73;;
5117;SDS011;2578;51.622;7.046;2023-12-04T12:15:09;34.23;;;20.70;;
5117;SDS011;2578;51.622;7.046;2023-12-04T12:17:40;35.90;;;20.67;;
5117;SDS011;2578;51.622;7.046;2023-12-04T12:20:09;34.67;;;21.33;;
5117;SDS011;2578;51.622;7.046;2023-12-04T12:22:37;39.67;;;22.00;;
5117;SDS011;2578;51.622;7.046;2023-12-04T12:25:12;36.60;;;20.50;;
5117;SDS011;2578;51.622;7.046;2023-12-04T12:27:38;35.37;;;20.80;;
5117;SDS011;2578;51.622;7.046;2023-12-04T12:30:04;32.90;;;20.03;;
5117;SDS011;2578;51.622;7.046;2023-12-04T12:32:31;33.67;;;19.70;;
5117;SDS011;2578;51.622;7.046;2023-12-04T12:34:57;34.27;;;20.20;;
5117;SDS011;2578;51.622;7.046;2023-12-04T12:37:23;32.27;;;19.10;;
5117;SDS011;2578;51.622;7.046;2023-12-04T12:39:49;33.87;;;19.57;;
5117;SDS011;2578;51.622;7.046;2023-12-04T12:42:24;33.23;;;20.03;;
5117;SDS011;2578;51.622;7.046;2023-12-04T12:44:51;41.13;;;18.57;;
5117;SDS011;2578;51.622;7.046;2023-12-04T12:47:18;35.77;;;19.30;;
5117;SDS011;2578;51.622;7.046;2023-12-04T12:49:44;29.30;;;16.47;;
5117;SDS011;2578;51.622;7.046;2023-12-04T12:52:10;30.30;;;16.03;;
5117;SDS011;2578;51.622;7.046;2023-12-04T12:54:37;30.77;;;17.10;;
5117;SDS011;2578;51.622;7.046;2023-12-04T12:57:03;37.07;;;18.87;;
5117;SDS011;2578;51.622;7.046;2023-12-04T12:59:29;30.30;;;15.90;;
5117;SDS011;2578;51.622;7.046;2023-12-04T13:01:54;32.43;;;16.67;;
5117;SDS011;2578;51.622;7.046;2023-12-04T13:04:21;30.80;;;16.60;;
5117;SDS011;2578;51.622;7.046;2023-12-04T13:06:47;33.00;;;18.67;;
5117;SDS011;2578;51.622;7.046;2023-12-04T13:09:13;33.17;;;16.27;;
5117;SDS011;2578;51.622;7.046;2023-12-04T13:11:44;33.00;;;19.60;;
5117;SDS011;2578;51.622;7.046;2023-12-04T13:14:13;33.27;;;17.63;;
5117;SDS011;2578;51.622;7.046;2023-12-04T13:16:39;30.00;;;16.30;;
5117;SDS011;2578;51.622;7.046;2023-12-04T13:19:05;31.20;;;16.20;;
5117;SDS011;2578;51.622;7.046;2023-12-04T13:21:31;30.70;;;17.27;;
5117;SDS011;2578;51.622;7.046;2023-12-04T13:23:56;35.80;;;18.13;;
5117;SDS011;2578;51.622;7.046;2023-12-04T13:26:22;31.13;;;17.60;;
5117;SDS011;2578;51.622;7.046;2023-12-04T13:28:48;31.90;;;18.53;;
5117;SDS011;2578;51.622;7.046;2023-12-04T13:31:13;30.80;;;17.20;;
5117;SDS011;2578;51.622;7.046;2023-12-04T13:33:39;32.57;;;17.90;;
5117;SDS011;2578;51.622;7.046;2023-12-04T13:36:05;39.77;;;16.37;;
5117;SDS011;2578;51.622;7.046;2023-12-04T13:38:31;29.83;;;16.03;;
5117;SDS011;2578;51.622;7.046;2023-12-04T13:40:58;31.47;;;16.93;;
5117;SDS011;2578;51.622;7.046;2023-12-04T13:43:27;31.17;;;18.00;;
5117;SDS011;2578;51.622;7.046;2023-12-04T13:46:12;30.77;;;17.70;;
5117;SDS011;2578;51.622;7.046;2023-12-04T13:48:38;35.17;;;20.43;;
5117;SDS011;2578;51.622;7.046;2023-12-04T13:51:10;33.53;;;20.20;;
5117;SDS011;2578;51.622;7.046;2023-12-04T13:53:36;31.70;;;19.60;;
5117;SDS011;2578;51.622;7.046;2023-12-04T13:56:12;31.67;;;18.10;;
5117;SDS011;2578;51.622;7.046;2023-12-04T13:59:00;36.20;;;18.90;;
5117;SDS011;2578;51.622;7.046;2023-12-04T14:01:28;32.90;;;18.43;;
5117;SDS011;2578;51.622;7.046;2023-12-04T14:03:55;32.37;;;19.73;;
5117;SDS011;2578;51.622;7.046;2023-12-04T14:06:26;32.40;;;19.00;;
5117;SDS011;2578;51.622;7.046;2023-12-04T14:08:53;30.90;;;18.10;;
5117;SDS011;2578;51.622;7.046;2023-12-04T14:11:18;34.57;;;18.87;;
5117;SDS011;2578;51.622;7.046;2023-12-04T14:13:44;32.40;;;18.07;;
5117;SDS011;2578;51.622;7.046;2023-12-04T14:16:09;32.37;;;18.17;;
5117;SDS011;2578;51.622;7.046;2023-12-04T14:18:35;30.67;;;17.53;;
5117;SDS011;2578;51.622;7.046;2023-12-04T14:21:01;34.37;;;19.53;;
5117;SDS011;2578;51.622;7.046;2023-12-04T14:23:27;34.10;;;18.80;;
5117;SDS011;2578;51.622;7.046;2023-12-04T14:25:52;33.07;;;17.70;;
5117;SDS011;2578;51.622;7.046;2023-12-04T14:28:18;29.77;;;16.27;;
5117;SDS011;2578;51.622;7.046;2023-12-04T14:30:45;32.07;;;19.57;;
5117;SDS011;2578;51.622;7.046;2023-12-04T14:33:12;32.33;;;17.73;;
5117;SDS011;2578;51.622;7.046;2023-12-04T14:35:37;31.03;;;16.17;;
5117;SDS011;2578;51.622;7.046;2023-12-04T14:38:03;32.90;;;17.60;;
5117;SDS011;2578;51.622;7.046;2023-12-04T14:40:32;37.00;;;17.50;;
5117;SDS011;2578;51.622;7.046;2023-12-04T14:42:58;30.00;;;16.87;;
5117;SDS011;2578;51.622;7.046;2023-12-04T14:45:23;30.47;;;17.37;;
5117;SDS011;2578;51.622;7.046;2023-12-04T14:47:49;30.37;;;17.00;;
5117;SDS011;2578;51.622;7.046;2023-12-04T14:50:17;32.93;;;18.20;;
5117;SDS011;2578;51.622;7.046;2023-12-04T14:52:42;31.70;;;17.60;;
5117;SDS011;2578;51.622;7.046;2023-12-04T14:55:15;31.43;;;17.23;;